Terminal Aerodrome Forecast
Issued by NWS

Home | Current Version | Previous Version | Text Only | Print | Product List | Glossary On
Versions: 1 2 3 4 5 6 7 8 9 10 11 12 13 14 15 16 17 18 19 20
000
FTUS45 KTFX 071120
TAFCTB
TAF
KCTB 071120Z 0712/0812 34012KT P6SM VCSH BKN080
      TEMPO 0713/0717 36015G25KT -SHRA BKN050
     FM071800 02008KT P6SM VCTS BKN060CB PROB30 0721/0724 VRB20G30KT
      6SM TSRA BKN040CB
     FM080100 04008KT P6SM BKN120
     FM080500 02006KT P6SM SKC=

USA.gov is the U.S. government's official web portal to all federal, state and local government web resources and services.